Time;durP1;ratioP1;P1;durP2;ratioP2;P2;SDS_P1;SDS_P2;PMS_P1;PMS_P2;Temp;Humidity;BMP_temperature;BMP_pressure;BME280_temperature;BME280_humidity;BME280_pressure;Samples;Min_cycle;Max_cycle;Signal;HPM_P1;HPM_P2
2021/05/28 00:00:53;;;;;;;;;;;8.70;99.90;;;;;;10362856;28;20430;-51
2021/05/28 00:05:54;;;;;;;;;;;8.80;99.90;;;;;;10365784;28;19917;-51
2021/05/28 00:10:54;;;;;;;;;;;8.90;99.90;;;;;;10365704;28;19925;-51
2021/05/28 00:15:55;;;;;;;;;;;9.00;99.90;;;;;;10364626;28;20418;-51
2021/05/28 00:20:56;;;;;;;;;;;9.00;99.90;;;;;;10362388;28;19929;-51
2021/05/28 00:25:56;;;;;;;;;;;9.00;99.90;;;;;;10362022;28;20399;-51
2021/05/28 00:30:57;;;;;;;;;;;8.90;99.90;;;;;;10360123;28;19928;-51
2021/05/28 00:35:58;;;;;;;;;;;8.90;99.90;;;;;;10356098;28;19921;-51
2021/05/28 00:40:58;;;;;;;;;;;8.80;99.90;;;;;;10360335;28;20668;-51
2021/05/28 00:45:59;;;;;;;;;;;8.80;99.90;;;;;;10359521;28;20320;-51
2021/05/28 00:51:00;;;;;;;;;;;8.70;99.90;;;;;;10359441;28;20402;-51
2021/05/28 00:56:01;;;;;;;;;;;8.70;99.90;;;;;;10359769;28;19913;-51
2021/05/28 01:01:02;;;;;;;;;;;8.70;99.90;;;;;;10363820;28;19921;-51
2021/05/28 01:06:03;;;;;;;;;;;8.60;99.90;;;;;;10365319;28;20556;-51
2021/05/28 01:11:03;;;;;;;;;;;8.50;99.90;;;;;;10365944;28;20178;-51
2021/05/28 01:16:04;;;;;;;;;;;8.50;99.90;;;;;;10361014;28;19925;-51
2021/05/28 01:21:05;;;;;;;;;;;8.50;99.90;;;;;;10358422;28;20006;-51
2021/05/28 01:26:06;;;;;;;;;;;8.50;99.90;;;;;;10357507;28;19988;-51
2021/05/28 01:31:08;;;;;;;;;;;8.30;99.90;;;;;;10358026;28;20117;-51
2021/05/28 01:36:08;;;;;;;;;;;8.20;99.90;;;;;;10364197;28;20023;-50
2021/05/28 01:41:09;;;;;;;;;;;8.10;99.90;;;;;;10356622;28;19926;-51
2021/05/28 01:46:10;;;;;;;;;;;8.00;99.90;;;;;;10368118;28;20680;-51
2021/05/28 01:51:10;;;;;;;;;;;7.90;99.90;;;;;;10359287;28;20461;-51
2021/05/28 01:56:11;;;;;;;;;;;7.80;99.90;;;;;;10358050;28;19929;-51
2021/05/28 02:01:11;;;;;;;;;;;7.80;99.90;;;;;;10366172;28;19986;-51
2021/05/28 02:06:12;;;;;;;;;;;7.70;99.90;;;;;;10359355;28;19933;-51
2021/05/28 02:11:13;;;;;;;;;;;7.70;99.90;;;;;;10361768;28;19925;-51
2021/05/28 02:16:13;;;;;;;;;;;7.60;99.90;;;;;;10355877;28;19921;-50
2021/05/28 02:21:14;;;;;;;;;;;7.60;99.90;;;;;;10361897;28;19929;-51
2021/05/28 02:26:15;;;;;;;;;;;7.50;99.90;;;;;;10352934;28;19925;-51
2021/05/28 02:31:15;;;;;;;;;;;7.40;99.90;;;;;;10359816;28;19925;-51
2021/05/28 02:36:16;;;;;;;;;;;7.40;99.90;;;;;;10362803;28;19979;-51
2021/05/28 02:41:16;;;;;;;;;;;7.40;99.90;;;;;;10357525;28;19925;-51
2021/05/28 02:46:17;;;;;;;;;;;7.40;99.90;;;;;;10359646;28;19921;-51
2021/05/28 02:51:20;;;;;;;;;;;7.40;99.90;;;;;;10358750;28;20135;-51
2021/05/28 02:56:20;;;;;;;;;;;7.40;99.90;;;;;;10357184;28;19913;-51
2021/05/28 03:01:21;;;;;;;;;;;7.40;99.90;;;;;;10360045;28;19983;-50
2021/05/28 03:06:21;;;;;;;;;;;7.30;99.90;;;;;;10354168;28;19925;-51
2021/05/28 03:11:22;;;;;;;;;;;7.30;99.90;;;;;;10359102;28;20040;-50
2021/05/28 03:16:22;;;;;;;;;;;7.40;99.90;;;;;;10362486;28;19921;-51
2021/05/28 03:26:31;;;;;;;;;;;7.30;99.90;;;;;;10365186;28;20308;-51
2021/05/28 03:31:32;;;;;;;;;;;7.20;99.90;;;;;;10359331;28;21147;-50
2021/05/28 03:36:32;;;;;;;;;;;7.10;99.90;;;;;;10364409;28;19932;-50
2021/05/28 03:41:33;;;;;;;;;;;7.10;99.90;;;;;;10368713;28;19929;-51
2021/05/28 03:46:33;;;;;;;;;;;7.00;99.90;;;;;;10367167;28;19929;-51
2021/05/28 03:51:34;;;;;;;;;;;7.00;99.90;;;;;;10362823;28;20000;-51
2021/05/28 03:56:34;;;;;;;;;;;7.00;99.90;;;;;;10367496;28;20565;-51
2021/05/28 04:01:35;;;;;;;;;;;7.00;99.90;;;;;;10365871;28;19925;-51
2021/05/28 04:06:35;;;;;;;;;;;6.90;99.90;;;;;;10360375;28;20120;-51
2021/05/28 04:11:36;;;;;;;;;;;6.90;99.90;;;;;;10361898;28;20396;-51
2021/05/28 04:16:37;;;;;;;;;;;7.00;99.90;;;;;;10361550;28;19917;-51
2021/05/28 04:21:38;;;;;;;;;;;7.00;99.90;;;;;;10357610;28;19939;-51
2021/05/28 04:26:38;;;;;;;;;;;7.00;99.90;;;;;;10359628;28;20466;-51
2021/05/28 04:31:39;;;;;;;;;;;7.10;99.90;;;;;;10368871;28;20204;-51
2021/05/28 04:36:40;;;;;;;;;;;7.20;99.90;;;;;;10355873;28;19935;-51
2021/05/28 04:41:40;;;;;;;;;;;7.30;99.90;;;;;;10361471;28;19925;-51
2021/05/28 04:46:43;;;;;;;;;;;7.40;99.90;;;;;;10355874;28;20293;-50
2021/05/28 04:51:43;;;;;;;;;;;7.60;99.90;;;;;;10362295;28;19926;-50
2021/05/28 04:56:44;;;;;;;;;;;7.80;99.90;;;;;;10359684;28;19991;-51
2021/05/28 05:01:45;;;;;;;;;;;8.10;99.90;;;;;;10359946;28;19932;-51
2021/05/28 05:06:45;;;;;;;;;;;8.30;99.90;;;;;;10357518;28;20028;-51
2021/05/28 05:11:46;;;;;;;;;;;8.50;99.90;;;;;;10362164;28;20292;-51
2021/05/28 05:16:47;;;;;;;;;;;8.60;99.90;;;;;;10359689;28;20304;-51
2021/05/28 05:21:48;;;;;;;;;;;8.60;99.90;;;;;;10355461;28;20387;-51
2021/05/28 05:26:49;;;;;;;;;;;8.70;99.90;;;;;;10356699;28;19929;-51
2021/05/28 05:31:50;;;;;;;;;;;8.90;99.90;;;;;;10361916;28;19921;-51
2021/05/28 05:36:51;;;;;;;;;;;9.20;99.90;;;;;;10356744;28;20388;-51
2021/05/28 05:41:51;;;;;;;;;;;9.50;99.90;;;;;;10356401;28;20343;-51
2021/05/28 05:46:52;;;;;;;;;;;9.70;99.90;;;;;;10367301;28;20457;-51
2021/05/28 05:51:52;;;;;;;;;;;10.00;99.90;;;;;;10365238;28;19926;-51
2021/05/28 05:56:53;;;;;;;;;;;10.40;99.90;;;;;;10352718;28;20434;-51
2021/05/28 06:01:53;;;;;;;;;;;10.70;99.90;;;;;;10358318;28;19933;-51
2021/05/28 06:06:54;;;;;;;;;;;11.10;99.90;;;;;;10358244;28;19952;-51
2021/05/28 06:11:55;;;;;;;;;;;11.40;99.90;;;;;;10353773;28;19992;-51
2021/05/28 06:16:55;;;;;;;;;;;11.60;99.90;;;;;;10355561;28;19926;-51
2021/05/28 06:21:56;;;;;;;;;;;11.70;99.90;;;;;;10362147;28;19932;-51
2021/05/28 06:26:57;;;;;;;;;;;11.70;99.90;;;;;;10359537;28;19933;-51
2021/05/28 06:32:00;;;;;;;;;;;11.80;99.90;;;;;;10358931;28;20293;-53
2021/05/28 06:37:01;;;;;;;;;;;11.90;99.90;;;;;;10356935;28;20539;-51
2021/05/28 06:42:03;;;;;;;;;;;11.70;99.90;;;;;;10360751;28;20152;-51
2021/05/28 06:47:04;;;;;;;;;;;11.50;99.90;;;;;;10357973;28;20024;-51
2021/05/28 06:52:05;;;;;;;;;;;11.40;99.90;;;;;;10347756;28;19921;-51
2021/05/28 06:57:05;;;;;;;;;;;11.30;99.90;;;;;;10352854;28;20002;-51
2021/05/28 07:02:06;;;;;;;;;;;11.40;99.90;;;;;;10357217;28;19976;-51
2021/05/28 07:07:07;;;;;;;;;;;11.60;99.90;;;;;;10359546;28;19922;-51
2021/05/28 07:12:08;;;;;;;;;;;11.80;99.90;;;;;;10363765;28;19922;-51
2021/05/28 07:17:08;;;;;;;;;;;12.00;99.90;;;;;;10353459;28;19964;-52
2021/05/28 07:22:09;;;;;;;;;;;12.10;99.90;;;;;;10357762;28;19957;-51
2021/05/28 07:27:09;;;;;;;;;;;12.10;99.90;;;;;;10367444;28;19925;-51
2021/05/28 07:32:10;;;;;;;;;;;12.20;99.90;;;;;;10357807;28;19945;-51
2021/05/28 07:37:11;;;;;;;;;;;12.20;99.90;;;;;;10358132;28;19933;-51
2021/05/28 07:42:16;;;;;;;;;;;12.20;99.90;;;;;;10351343;28;19937;-51
2021/05/28 07:47:16;;;;;;;;;;;12.20;99.90;;;;;;10364328;28;19927;-51
2021/05/28 07:52:17;;;;;;;;;;;12.30;99.90;;;;;;10355036;28;19921;-51
2021/05/28 07:57:18;;;;;;;;;;;12.40;99.90;;;;;;10361633;28;19921;-51
2021/05/28 08:02:18;;;;;;;;;;;12.50;99.90;;;;;;10366869;28;19921;-51
2021/05/28 08:07:19;;;;;;;;;;;12.60;99.90;;;;;;10359730;28;19921;-51
2021/05/28 08:12:20;;;;;;;;;;;12.80;99.90;;;;;;10373144;28;20039;-51
2021/05/28 08:17:20;;;;;;;;;;;12.90;99.90;;;;;;10361349;28;19921;-51
2021/05/28 08:22:21;;;;;;;;;;;13.20;99.90;;;;;;10367993;28;20137;-51
2021/05/28 08:27:21;;;;;;;;;;;13.50;99.90;;;;;;10366860;28;19973;-51
2021/05/28 08:32:22;;;;;;;;;;;13.80;99.90;;;;;;10358046;28;19917;-51
2021/05/28 08:37:23;;;;;;;;;;;13.90;99.90;;;;;;10363613;28;20176;-51
2021/05/28 08:42:23;;;;;;;;;;;14.00;99.90;;;;;;10368495;28;20000;-51
2021/05/28 08:47:24;;;;;;;;;;;14.20;99.90;;;;;;10359288;28;19925;-51
2021/05/28 08:52:24;;;;;;;;;;;14.50;99.90;;;;;;10363305;28;20089;-51
2021/05/28 08:57:25;;;;;;;;;;;14.70;99.90;;;;;;10364816;28;19925;-51
2021/05/28 09:02:27;;;;;;;;;;;14.70;99.90;;;;;;10357517;28;19925;-51
2021/05/28 09:07:28;;;;;;;;;;;15.00;99.90;;;;;;10359979;28;19987;-51
2021/05/28 09:12:29;;;;;;;;;;;15.30;99.90;;;;;;10360679;28;19922;-51
2021/05/28 09:17:46;;;;;;;;;;;15.40;99.90;;;;;;10356008;28;19921;-51
2021/05/28 09:22:47;;;;;;;;;;;15.50;99.90;;;;;;10359533;28;19920;-51
2021/05/28 09:27:51;;;;;;;;;;;15.40;99.90;;;;;;10358369;28;20179;-51
2021/05/28 09:32:51;;;;;;;;;;;15.80;99.90;;;;;;10356917;28;19918;-51
2021/05/28 09:37:52;;;;;;;;;;;16.10;99.90;;;;;;10354471;28;19926;-51
2021/05/28 09:42:58;;;;;;;;;;;16.20;99.90;;;;;;10355843;28;20544;-51
2021/05/28 09:48:19;;;;;;;;;;;16.40;99.90;;;;;;10361408;28;20755;-51
2021/05/28 09:53:27;;;;;;;;;;;16.50;99.90;;;;;;10357486;28;19925;-51
2021/05/28 09:58:48;;;;;;;;;;;17.00;99.90;;;;;;10356665;28;20025;-51
2021/05/28 10:04:18;;;;;;;;;;;17.20;99.90;;;;;;10354946;28;20373;-51
2021/05/28 10:09:19;;;;;;;;;;;17.40;99.90;;;;;;10342652;28;19924;-52
2021/05/28 10:14:19;;;;;;;;;;;17.40;99.90;;;;;;10360783;28;20191;-51
2021/05/28 10:19:20;;;;;;;;;;;17.40;99.90;;;;;;10362524;28;19925;-52
2021/05/28 10:24:21;;;;;;;;;;;18.00;99.90;;;;;;10365632;28;19940;-51
2021/05/28 10:29:25;;;;;;;;;;;18.20;99.90;;;;;;10357278;28;20024;-51
2021/05/28 10:34:27;;;;;;;;;;;17.90;99.90;;;;;;10356372;28;20412;-52
2021/05/28 10:39:28;;;;;;;;;;;17.60;99.90;;;;;;10347792;28;20403;-51
2021/05/28 10:44:37;;;;;;;;;;;17.70;99.90;;;;;;10355381;28;19921;-51
2021/05/28 10:49:42;;;;;;;;;;;18.40;99.90;;;;;;10357968;28;20264;-51
2021/05/28 10:54:45;;;;;;;;;;;18.40;99.90;;;;;;10354542;28;20427;-51
2021/05/28 10:59:47;;;;;;;;;;;18.40;99.90;;;;;;10351064;28;19921;-52
2021/05/28 11:04:48;;;;;;;;;;;18.70;99.90;;;;;;10356720;28;19992;-52
2021/05/28 11:09:51;;;;;;;;;;;18.40;99.90;;;;;;10359145;28;19913;-51
2021/05/28 11:14:58;;;;;;;;;;;18.80;99.90;;;;;;10361230;28;19959;-52
2021/05/28 11:20:04;;;;;;;;;;;18.40;99.90;;;;;;10360539;28;19927;-51
2021/05/28 11:25:06;;;;;;;;;;;18.30;99.90;;;;;;10358375;28;19929;-51
2021/05/28 11:30:07;;;;;;;;;;;17.90;99.90;;;;;;10359359;28;19929;-51
2021/05/28 11:35:07;;;;;;;;;;;17.80;99.90;;;;;;10362964;28;20376;-51
2021/05/28 11:40:12;;;;;;;;;;;18.30;99.90;;;;;;10368810;28;20430;-51
2021/05/28 11:45:14;;;;;;;;;;;18.10;99.90;;;;;;10370537;28;19917;-51
2021/05/28 11:50:16;;;;;;;;;;;17.70;99.90;;;;;;10368870;28;19948;-51
2021/05/28 11:55:17;;;;;;;;;;;18.10;99.90;;;;;;10369632;28;20021;-51
2021/05/28 12:00:18;;;;;;;;;;;19.10;99.90;;;;;;10363341;28;19931;-51
2021/05/28 12:05:22;;;;;;;;;;;19.20;99.90;;;;;;10372120;28;19924;-51
2021/05/28 12:10:23;;;;;;;;;;;18.80;99.90;;;;;;10368269;28;19918;-51
2021/05/28 12:15:24;;;;;;;;;;;18.70;99.90;;;;;;10370311;28;19913;-51
2021/05/28 12:20:32;;;;;;;;;;;18.50;99.90;;;;;;10368650;28;19921;-51
2021/05/28 12:25:37;;;;;;;;;;;18.10;99.90;;;;;;10363011;28;20381;-51
2021/05/28 12:30:38;;;;;;;;;;;17.60;99.90;;;;;;10367433;28;20272;-51
2021/05/28 12:35:39;;;;;;;;;;;17.40;99.90;;;;;;10366881;28;20407;-51
2021/05/28 12:40:43;;;;;;;;;;;17.00;99.90;;;;;;10361358;28;19932;-51
2021/05/28 12:45:44;;;;;;;;;;;17.00;99.90;;;;;;10359605;28;19922;-51
2021/05/28 12:50:46;;;;;;;;;;;17.60;99.90;;;;;;10363744;28;20564;-51
2021/05/28 12:55:53;;;;;;;;;;;18.30;99.90;;;;;;10361960;28;19968;-51
2021/05/28 13:01:01;;;;;;;;;;;18.70;99.90;;;;;;10360352;28;20355;-51
2021/05/28 13:06:20;;;;;;;;;;;18.20;99.90;;;;;;10359316;28;19917;-51
2021/05/28 13:11:21;;;;;;;;;;;17.70;99.90;;;;;;10358335;28;20016;-51
2021/05/28 13:16:28;;;;;;;;;;;17.30;99.90;;;;;;10358401;28;19917;-51
2021/05/28 13:21:30;;;;;;;;;;;17.10;99.90;;;;;;10363168;28;20357;-51
2021/05/28 13:26:31;;;;;;;;;;;17.20;99.90;;;;;;10358161;28;19933;-51
2021/05/28 13:31:40;;;;;;;;;;;18.00;99.90;;;;;;10353139;28;19921;-52
2021/05/28 13:36:40;;;;;;;;;;;18.70;99.90;;;;;;10352933;28;20168;-52
2021/05/28 13:41:42;;;;;;;;;;;18.80;99.90;;;;;;10349319;28;19926;-51
2021/05/28 13:46:44;;;;;;;;;;;19.20;99.90;;;;;;10349137;28;19917;-51
2021/05/28 13:51:45;;;;;;;;;;;19.00;99.90;;;;;;10357003;28;19921;-51
2021/05/28 13:56:45;;;;;;;;;;;19.20;99.90;;;;;;10364348;28;21090;-51
2021/05/28 14:01:47;;;;;;;;;;;19.10;99.90;;;;;;10354294;28;19924;-52
2021/05/28 14:06:47;;;;;;;;;;;19.20;99.90;;;;;;10359094;28;19921;-51
2021/05/28 14:11:48;;;;;;;;;;;18.80;99.90;;;;;;10355640;28;19921;-51
2021/05/28 14:16:49;;;;;;;;;;;18.80;99.90;;;;;;10354432;28;19977;-51
2021/05/28 14:21:49;;;;;;;;;;;18.80;99.90;;;;;;10363071;28;21643;-51
2021/05/28 14:26:50;;;;;;;;;;;18.70;99.90;;;;;;10356180;28;20067;-52
2021/05/28 14:31:51;;;;;;;;;;;18.50;99.90;;;;;;10358763;28;20016;-51
2021/05/28 14:36:52;;;;;;;;;;;18.70;99.90;;;;;;10360310;28;20004;-51
2021/05/28 14:41:53;;;;;;;;;;;18.80;99.90;;;;;;10359377;28;19917;-51
2021/05/28 14:46:53;;;;;;;;;;;18.70;99.90;;;;;;10361576;28;19936;-51
2021/05/28 14:51:54;;;;;;;;;;;18.60;99.90;;;;;;10358354;28;20487;-51
2021/05/28 14:56:54;;;;;;;;;;;18.80;99.90;;;;;;10358309;28;20343;-51
2021/05/28 15:01:55;;;;;;;;;;;18.60;99.90;;;;;;10356513;28;19929;-51
2021/05/28 15:06:56;;;;;;;;;;;18.30;99.90;;;;;;10353869;28;19968;-51
2021/05/28 15:11:56;;;;;;;;;;;18.20;99.90;;;;;;10356495;28;19925;-51
2021/05/28 15:16:58;;;;;;;;;;;18.10;99.90;;;;;;10095003;28;21064;-51
2021/05/28 15:21:58;;;;;;;;;;;18.30;99.90;;;;;;10207481;28;20396;-51
2021/05/28 15:26:59;;;;;;;;;;;18.70;99.90;;;;;;10344272;28;19944;-51
2021/05/28 15:31:59;;;;;;;;;;;18.70;99.90;;;;;;10353055;28;20152;-51
2021/05/28 15:37:00;;;;;;;;;;;18.50;99.90;;;;;;10349848;28;19929;-52
2021/05/28 15:42:01;;;;;;;;;;;18.30;99.90;;;;;;10340525;28;20532;-51
2021/05/28 15:47:02;;;;;;;;;;;18.10;99.90;;;;;;10354817;28;19956;-52
2021/05/28 15:52:03;;;;;;;;;;;18.20;99.90;;;;;;10336567;28;19925;-52
2021/05/28 15:57:03;;;;;;;;;;;18.10;99.90;;;;;;10338042;28;20019;-52
2021/05/28 16:02:05;;;;;;;;;;;18.10;99.90;;;;;;10335149;28;19936;-51
2021/05/28 16:07:05;;;;;;;;;;;18.10;99.90;;;;;;10346808;28;20372;-51
2021/05/28 16:12:06;;;;;;;;;;;17.90;99.90;;;;;;10350404;28;19956;-51
2021/05/28 16:17:07;;;;;;;;;;;17.90;99.90;;;;;;10347006;28;20000;-51
2021/05/28 16:22:08;;;;;;;;;;;17.80;99.90;;;;;;10350725;28;20143;-52
2021/05/28 16:27:08;;;;;;;;;;;17.60;99.90;;;;;;10359550;28;19936;-52
2021/05/28 16:32:09;;;;;;;;;;;17.50;99.90;;;;;;10354028;28;19929;-51
2021/05/28 16:37:10;;;;;;;;;;;17.50;99.90;;;;;;10360754;28;20350;-51
2021/05/28 16:42:12;;;;;;;;;;;17.40;99.90;;;;;;10354344;28;19926;-51
2021/05/28 16:47:12;;;;;;;;;;;17.40;99.90;;;;;;10363260;28;20201;-51
2021/05/28 16:52:14;;;;;;;;;;;17.40;99.90;;;;;;10364257;28;19921;-52
2021/05/28 16:57:14;;;;;;;;;;;17.40;99.90;;;;;;10364910;28;20060;-52
2021/05/28 17:02:15;;;;;;;;;;;17.40;99.90;;;;;;10362829;28;19933;-52
2021/05/28 17:07:16;;;;;;;;;;;17.40;99.90;;;;;;10364954;28;19917;-51
2021/05/28 17:12:17;;;;;;;;;;;17.30;99.90;;;;;;10355459;28;20069;-52
2021/05/28 17:17:17;;;;;;;;;;;17.30;99.90;;;;;;10367231;28;19947;-51
2021/05/28 17:22:18;;;;;;;;;;;17.20;99.90;;;;;;10382176;28;19932;-51
2021/05/28 17:27:19;;;;;;;;;;;17.10;99.90;;;;;;10355410;28;19929;-51
2021/05/28 17:32:19;;;;;;;;;;;17.00;99.90;;;;;;10368428;28;20377;-52
2021/05/28 17:37:20;;;;;;;;;;;16.90;99.90;;;;;;10360042;28;19975;-51
2021/05/28 17:42:21;;;;;;;;;;;16.80;99.90;;;;;;10355094;28;19968;-52
2021/05/28 17:47:21;;;;;;;;;;;16.70;99.90;;;;;;10348503;28;19932;-51
2021/05/28 17:52:22;;;;;;;;;;;16.70;99.90;;;;;;10356630;28;19929;-51
2021/05/28 17:57:22;;;;;;;;;;;16.60;99.90;;;;;;10348123;28;19987;-51
2021/05/28 18:02:24;;;;;;;;;;;16.50;99.90;;;;;;10358690;28;19927;-51
2021/05/28 18:07:25;;;;;;;;;;;16.40;99.90;;;;;;10358841;28;19921;-51
2021/05/28 18:12:26;;;;;;;;;;;16.30;99.90;;;;;;10355724;28;19922;-52
2021/05/28 18:17:27;;;;;;;;;;;16.20;99.90;;;;;;10351661;28;19921;-52
2021/05/28 18:22:28;;;;;;;;;;;16.20;99.90;;;;;;10350649;28;20087;-51
2021/05/28 18:27:28;;;;;;;;;;;16.10;99.90;;;;;;10355135;28;19936;-51
2021/05/28 18:32:29;;;;;;;;;;;16.00;99.90;;;;;;10355148;28;19921;-51
2021/05/28 18:37:30;;;;;;;;;;;16.00;99.90;;;;;;10352988;28;19956;-51
2021/05/28 18:42:30;;;;;;;;;;;15.90;99.90;;;;;;10355874;28;19980;-51
2021/05/28 18:47:31;;;;;;;;;;;15.90;99.90;;;;;;10345748;28;20301;-51
2021/05/28 18:52:31;;;;;;;;;;;15.90;99.90;;;;;;10347632;28;19921;-51
2021/05/28 18:57:32;;;;;;;;;;;15.80;99.90;;;;;;10355638;28;19922;-51
2021/05/28 19:02:33;;;;;;;;;;;15.80;99.90;;;;;;10348026;28;20369;-51
2021/05/28 19:07:34;;;;;;;;;;;15.90;99.90;;;;;;10356505;28;20415;-51
2021/05/28 19:12:34;;;;;;;;;;;15.80;99.90;;;;;;10355040;28;20266;-51
2021/05/28 19:17:36;;;;;;;;;;;15.60;99.90;;;;;;10357882;28;19921;-51
2021/05/28 19:22:37;;;;;;;;;;;15.50;99.90;;;;;;10348581;28;20364;-51
2021/05/28 19:27:39;;;;;;;;;;;15.40;99.90;;;;;;10349802;28;20408;-51
2021/05/28 19:32:40;;;;;;;;;;;15.40;99.90;;;;;;10350296;28;19925;-51
2021/05/28 19:37:41;;;;;;;;;;;15.40;99.90;;;;;;10351348;28;19919;-52
2021/05/28 19:42:43;;;;;;;;;;;15.20;99.90;;;;;;10352185;28;20250;-51
2021/05/28 19:47:44;;;;;;;;;;;15.20;99.90;;;;;;10346504;28;20309;-51
2021/05/28 19:52:45;;;;;;;;;;;15.10;99.90;;;;;;10351815;28;19967;-51
2021/05/28 19:57:46;;;;;;;;;;;14.90;99.90;;;;;;10362238;28;19968;-51
2021/05/28 20:02:48;;;;;;;;;;;14.80;99.90;;;;;;10354331;28;20462;-51
2021/05/28 20:07:49;;;;;;;;;;;14.70;99.90;;;;;;10358067;28;20272;-51
2021/05/28 20:18:09;;;;;;;;;;;14.60;99.90;;;;;;10356888;28;19933;-51
2021/05/28 20:23:10;;;;;;;;;;;14.50;99.90;;;;;;10360973;28;19952;-51
2021/05/28 20:28:11;;;;;;;;;;;14.30;99.90;;;;;;10359323;28;19937;-51
2021/05/28 20:33:12;;;;;;;;;;;14.20;99.90;;;;;;10359130;28;19921;-51
2021/05/28 20:38:13;;;;;;;;;;;14.10;99.90;;;;;;10360917;28;20609;-51
2021/05/28 20:43:13;;;;;;;;;;;13.90;99.90;;;;;;10362014;28;19928;-51
2021/05/28 20:48:14;;;;;;;;;;;13.80;99.90;;;;;;10357608;28;19932;-51
2021/05/28 20:53:16;;;;;;;;;;;13.80;99.90;;;;;;10360307;28;20585;-51
2021/05/28 20:58:17;;;;;;;;;;;13.60;99.90;;;;;;10355811;28;19921;-51
2021/05/28 21:03:22;;;;;;;;;;;13.50;99.90;;;;;;10356594;28;19929;-51
2021/05/28 21:08:22;;;;;;;;;;;13.60;99.90;;;;;;10360445;28;19914;-51
2021/05/28 21:13:23;;;;;;;;;;;13.50;99.90;;;;;;10365168;28;20233;-51
2021/05/28 21:18:24;;;;;;;;;;;13.50;99.90;;;;;;10365203;28;19920;-51
2021/05/28 21:23:25;;;;;;;;;;;13.40;99.90;;;;;;10356898;28;19925;-51
2021/05/28 21:28:25;;;;;;;;;;;13.40;99.90;;;;;;10356888;28;19964;-51
2021/05/28 21:33:26;;;;;;;;;;;13.40;99.90;;;;;;10353319;28;19917;-51
2021/05/28 21:38:27;;;;;;;;;;;13.30;99.90;;;;;;10354152;28;19913;-50
2021/05/28 21:43:27;;;;;;;;;;;13.30;99.90;;;;;;10358730;28;19974;-51
2021/05/28 21:48:28;;;;;;;;;;;13.10;99.90;;;;;;10359894;28;19955;-51
2021/05/28 21:53:33;;;;;;;;;;;13.00;99.90;;;;;;10358630;28;19932;-51
2021/05/28 21:58:34;;;;;;;;;;;13.00;99.90;;;;;;10363718;28;19964;-51
2021/05/28 22:03:35;;;;;;;;;;;12.90;99.90;;;;;;10358012;28;19983;-50
2021/05/28 22:08:35;;;;;;;;;;;12.90;99.90;;;;;;10356186;28;19935;-51
2021/05/28 22:13:36;;;;;;;;;;;12.90;99.90;;;;;;10360440;28;19917;-50
2021/05/28 22:18:38;;;;;;;;;;;12.80;99.90;;;;;;10357128;28;20416;-50
2021/05/28 22:23:39;;;;;;;;;;;12.80;99.90;;;;;;10354144;28;20224;-50
2021/05/28 22:28:45;;;;;;;;;;;12.80;99.90;;;;;;10352113;28;20020;-50
2021/05/28 22:38:53;;;;;;;;;;;12.60;99.90;;;;;;10359730;28;19963;-51
2021/05/28 22:43:58;;;;;;;;;;;12.50;99.90;;;;;;10357277;28;20118;-50
2021/05/28 22:49:00;;;;;;;;;;;12.40;99.90;;;;;;10357291;28;19921;-50
2021/05/28 22:54:03;;;;;;;;;;;12.30;99.90;;;;;;10357396;28;19943;-50
2021/05/28 22:59:04;;;;;;;;;;;12.30;99.90;;;;;;10357219;28;19952;-50
2021/05/28 23:04:06;;;;;;;;;;;12.20;99.90;;;;;;10356178;28;19925;-50
2021/05/28 23:14:10;;;;;;;;;;;12.00;99.90;;;;;;10353807;28;19928;-50
2021/05/28 23:19:10;;;;;;;;;;;11.90;99.90;;;;;;10353536;28;19918;-50
2021/05/28 23:24:12;;;;;;;;;;;11.80;99.90;;;;;;10348834;28;19937;-50
2021/05/28 23:29:12;;;;;;;;;;;11.80;99.90;;;;;;10363713;28;20018;-50
2021/05/28 23:34:13;;;;;;;;;;;11.80;99.90;;;;;;10358069;28;19963;-50
2021/05/28 23:39:14;;;;;;;;;;;11.70;99.90;;;;;;10364296;28;19921;-50
2021/05/28 23:44:24;;;;;;;;;;;11.70;99.90;;;;;;10362091;28;19929;-50
2021/05/28 23:49:25;;;;;;;;;;;11.80;99.90;;;;;;10357568;28;20711;-50
2021/05/28 23:54:25;;;;;;;;;;;11.70;99.90;;;;;;10355792;28;20139;-50
2021/05/28 23:59:26;;;;;;;;;;;11.70;99.90;;;;;;10363773;28;19937;-50
